Grosse Pointe Park, Michigan
Current Conditions -  °F | °C
As of 6:53 PM on Sunday 25 Jan 2015 (Local Time) from KDET Reporting Station
Broken Clouds Broken Clouds  
Wind Chill:   Ceiling: 11000
Heat Index: 20°   Visibility: 10mi
Dew Point:   Wind: 14mph
Humidity: 60%   Direction: 70°ENE
Pressure: 29.97"   Gusts: NA
Location:  42.4104°N, 82.941°W
Report Text: KDET 252353Z 07012KT 10SM BKN110 M07/M13 A2997 RMK AO2 SLP157 T10671133 11039 21067 51016
Loading
Personal Weather Stations






























Interactive Weather Map New forecast layout! Learn more

10-Day Weather Forecast

Advertisements
Track Severe Weather on mobile